Manizales — CQKL — position and weather

sailwx.info

Track history (hours):
 
Tides and Currents Weather Stations Pressure Air Temp Water Temp Dewpoint Dewpoint Depression Visibility Wind Speed Wind Dir Waves Ship Positions

Manizales

Last reported at 2015-Feb-01 22:14 UTC. Time now 2015-Feb-28 06:57 UTC.
Position N 20°08' W 096°21'.
Warning: this ship's position is 26 days out of date.

Length 119 m; draft 7 m.

Type: Cargo ship. MMSI: 255804560.

Date/timePositionNaut miles runAvg speedWind from/ knotsBaromVisibWave heightAir tempDewpointWater temp
2015-Feb-01 22:14N 20°08' W 096°21'1111.9
2015-Feb-01 21:20N 19°58' W 096°16'912.0
2015-Feb-01 20:33N 19°50' W 096°12'1211.8
2015-Feb-01 19:33N 19°39' W 096°07'1211.9
2015-Feb-01 18:33N 19°28' W 096°02'1211.9
2015-Feb-01 17:32N 19°16' W 095°58'9 9.6
2015-Feb-01 16:33N 19°12' W 096°06'2 1.9
2015-Feb-01 15:33N 19°13' W 096°08'0 0.0
2015-Feb-01 14:33N 19°13' W 096°08'0 0.0
2015-Feb-01 13:33N 19°13' W 096°08'0 0.0
2015-Feb-01 12:33N 19°13' W 096°08'0 0.0
2015-Feb-01 11:33N 19°13' W 096°08'0 0.0
2015-Feb-01 10:33N 19°13' W 096°08'0 0.0
2015-Feb-01 09:33N 19°13' W 096°08'0 0.0
2015-Feb-01 08:33N 19°13' W 096°08'0 0.0
2015-Feb-01 07:31N 19°13' W 096°08'0 0.0
2015-Feb-01 06:33N 19°13' W 096°08'0 0.0
2015-Feb-01 05:33N 19°13' W 096°08'0 0.0
2015-Feb-01 04:33N 19°13' W 096°08'0 0.0
2015-Feb-01 03:33N 19°13' W 096°08'0 0.0
2015-Feb-01 02:24N 19°13' W 096°08'0 0.0
2015-Feb-01 01:33N 19°13' W 096°08'0 0.0
2015-Feb-01 00:33N 19°13' W 096°08'0 0.0
2015-Jan-31 23:30N 19°13' W 096°08'0 0.0
2015-Jan-31 22:33N 19°13' W 096°08'0 0.0
2015-Jan-31 21:33N 19°13' W 096°08'0 0.0
2015-Jan-31 20:33N 19°13' W 096°08'0 0.0
2015-Jan-31 19:33N 19°13' W 096°08'0 0.0
2015-Jan-31 18:33N 19°13' W 096°08'0 0.0
2015-Jan-31 17:33N 19°13' W 096°08'0 0.0
2015-Jan-31 16:33N 19°13' W 096°08'0 0.0
2015-Jan-31 15:33N 19°13' W 096°08'0 0.0
2015-Jan-31 14:33N 19°13' W 096°08'0 0.0
2015-Jan-31 13:33N 19°13' W 096°08'0 0.0
2015-Jan-31 12:33N 19°13' W 096°08'0 0.0
2015-Jan-31 11:33N 19°13' W 096°08'0 0.0
2015-Jan-31 10:33N 19°13' W 096°08'0 0.0
2015-Jan-31 09:33N 19°13' W 096°08'0 0.0
2015-Jan-31 08:33N 19°13' W 096°08'0 0.0
2015-Jan-31 07:33N 19°13' W 096°08'0 0.0
2015-Jan-31 06:33N 19°13' W 096°08'0 0.0
2015-Jan-31 05:33N 19°13' W 096°08'0 0.0
2015-Jan-31 04:33N 19°13' W 096°08'0 0.0
2015-Jan-31 03:33N 19°13' W 096°08'0 0.0
2015-Jan-31 02:33N 19°13' W 096°08'0 0.0
2015-Jan-31 01:33N 19°13' W 096°08'0 0.0
2015-Jan-31 00:33N 19°13' W 096°08'0 0.0
2015-Jan-30 23:33N 19°13' W 096°08'0 0.0
2015-Jan-30 22:33N 19°13' W 096°08'3 2.8
2015-Jan-30 21:33N 19°12' W 096°05'8 7.7
2015-Jan-30 20:33N 19°13' W 095°57'7 7.1
2015-Jan-30 19:33N 19°14' W 095°50'8 8.5
2015-Jan-30 18:33N 19°17' W 095°41'  
2015-Jan-27 10:33N 27°46' W 082°31'10 9.6
2015-Jan-27 09:33N 27°54' W 082°26'1 0.9
2015-Jan-27 08:33N 27°55' W 082°25'0 0.0
2015-Jan-27 07:33N 27°55' W 082°25'0 0.0
2015-Jan-27 06:33N 27°55' W 082°25'0 0.0
2015-Jan-27 05:33N 27°55' W 082°25'0 0.0
2015-Jan-27 04:33N 27°55' W 082°25'0 0.0
2015-Jan-27 03:30N 27°55' W 082°25'0 0.0
2015-Jan-27 02:33N 27°55' W 082°25'0 0.0
2015-Jan-27 01:33N 27°55' W 082°25'0 0.0
2015-Jan-27 00:30N 27°55' W 082°25'0 0.0
2015-Jan-26 23:33N 27°55' W 082°25'0 0.0
2015-Jan-26 22:30N 27°55' W 082°25'0 0.0
2015-Jan-26 21:33N 27°55' W 082°25'0 0.0
2015-Jan-26 20:33N 27°55' W 082°25'0 0.0
2015-Jan-26 19:33N 27°55' W 082°25'0 0.0
2015-Jan-26 18:30N 27°55' W 082°25'0 0.0
2015-Jan-26 17:33N 27°55' W 082°25'0 0.0
2015-Jan-26 16:33N 27°55' W 082°25'7 7.1
2015-Jan-26 15:33N 27°48' W 082°28'1010.1
2015-Jan-26 14:33N 27°40' W 082°35'  
Track history (hours):
 
Tides and Currents Weather Stations Pressure Air Temp Water Temp Dewpoint Dewpoint Depression Visibility Wind Speed Wind Dir Waves Ship Positions

Manizales

Last reported at 2015-Feb-01 22:14 UTC. Time now 2015-Feb-28 06:57 UTC.
Position N 20°08' W 096°21'.
Warning: this ship's position is 26 days out of date.

Length 119 m; draft 7 m.

Type: Cargo ship. MMSI: 255804560.

Date/timePositionNaut miles runAvg speedWind from/ knotsBaromVisibWave heightAir tempDewpointWater temp
2015-Feb-01 22:14N 20°08' W 096°21'1111.9
2015-Feb-01 21:20N 19°58' W 096°16'912.0
2015-Feb-01 20:33N 19°50' W 096°12'1211.8
2015-Feb-01 19:33N 19°39' W 096°07'1211.9
2015-Feb-01 18:33N 19°28' W 096°02'1211.9
2015-Feb-01 17:32N 19°16' W 095°58'9 9.6
2015-Feb-01 16:33N 19°12' W 096°06'2 1.9
2015-Feb-01 15:33N 19°13' W 096°08'0 0.0
2015-Feb-01 14:33N 19°13' W 096°08'0 0.0
2015-Feb-01 13:33N 19°13' W 096°08'0 0.0
2015-Feb-01 12:33N 19°13' W 096°08'0 0.0
2015-Feb-01 11:33N 19°13' W 096°08'0 0.0
2015-Feb-01 10:33N 19°13' W 096°08'0 0.0
2015-Feb-01 09:33N 19°13' W 096°08'0 0.0
2015-Feb-01 08:33N 19°13' W 096°08'0 0.0
2015-Feb-01 07:31N 19°13' W 096°08'0 0.0
2015-Feb-01 06:33N 19°13' W 096°08'0 0.0
2015-Feb-01 05:33N 19°13' W 096°08'0 0.0
2015-Feb-01 04:33N 19°13' W 096°08'0 0.0
2015-Feb-01 03:33N 19°13' W 096°08'0 0.0
2015-Feb-01 02:24N 19°13' W 096°08'0 0.0
2015-Feb-01 01:33N 19°13' W 096°08'0 0.0
2015-Feb-01 00:33N 19°13' W 096°08'0 0.0
2015-Jan-31 23:30N 19°13' W 096°08'0 0.0
2015-Jan-31 22:33N 19°13' W 096°08'0 0.0
2015-Jan-31 21:33N 19°13' W 096°08'0 0.0
2015-Jan-31 20:33N 19°13' W 096°08'0 0.0
2015-Jan-31 19:33N 19°13' W 096°08'0 0.0
2015-Jan-31 18:33N 19°13' W 096°08'0 0.0
2015-Jan-31 17:33N 19°13' W 096°08'0 0.0
2015-Jan-31 16:33N 19°13' W 096°08'0 0.0
2015-Jan-31 15:33N 19°13' W 096°08'0 0.0
2015-Jan-31 14:33N 19°13' W 096°08'0 0.0
2015-Jan-31 13:33N 19°13' W 096°08'0 0.0
2015-Jan-31 12:33N 19°13' W 096°08'0 0.0
2015-Jan-31 11:33N 19°13' W 096°08'0 0.0
2015-Jan-31 10:33N 19°13' W 096°08'0 0.0
2015-Jan-31 09:33N 19°13' W 096°08'0 0.0
2015-Jan-31 08:33N 19°13' W 096°08'0 0.0
2015-Jan-31 07:33N 19°13' W 096°08'0 0.0
2015-Jan-31 06:33N 19°13' W 096°08'0 0.0
2015-Jan-31 05:33N 19°13' W 096°08'0 0.0
2015-Jan-31 04:33N 19°13' W 096°08'0 0.0
2015-Jan-31 03:33N 19°13' W 096°08'0 0.0
2015-Jan-31 02:33N 19°13' W 096°08'0 0.0
2015-Jan-31 01:33N 19°13' W 096°08'0 0.0
2015-Jan-31 00:33N 19°13' W 096°08'0 0.0
2015-Jan-30 23:33N 19°13' W 096°08'0 0.0
2015-Jan-30 22:33N 19°13' W 096°08'3 2.8
2015-Jan-30 21:33N 19°12' W 096°05'8 7.7
2015-Jan-30 20:33N 19°13' W 095°57'7 7.1
2015-Jan-30 19:33N 19°14' W 095°50'8 8.5
2015-Jan-30 18:33N 19°17' W 095°41'  
2015-Jan-27 10:33N 27°46' W 082°31'10 9.6
2015-Jan-27 09:33N 27°54' W 082°26'1 0.9
2015-Jan-27 08:33N 27°55' W 082°25'0 0.0
2015-Jan-27 07:33N 27°55' W 082°25'0 0.0
2015-Jan-27 06:33N 27°55' W 082°25'0 0.0
2015-Jan-27 05:33N 27°55' W 082°25'0 0.0
2015-Jan-27 04:33N 27°55' W 082°25'0 0.0
2015-Jan-27 03:30N 27°55' W 082°25'0 0.0
2015-Jan-27 02:33N 27°55' W 082°25'0 0.0
2015-Jan-27 01:33N 27°55' W 082°25'0 0.0
2015-Jan-27 00:30N 27°55' W 082°25'0 0.0
2015-Jan-26 23:33N 27°55' W 082°25'0 0.0
2015-Jan-26 22:30N 27°55' W 082°25'0 0.0
2015-Jan-26 21:33N 27°55' W 082°25'0 0.0
2015-Jan-26 20:33N 27°55' W 082°25'0 0.0
2015-Jan-26 19:33N 27°55' W 082°25'0 0.0
2015-Jan-26 18:30N 27°55' W 082°25'0 0.0
2015-Jan-26 17:33N 27°55' W 082°25'0 0.0
2015-Jan-26 16:33N 27°55' W 082°25'7 7.1
2015-Jan-26 15:33N 27°48' W 082°28'1010.1
2015-Jan-26 14:33N 27°40' W 082°35'  

Dump ship's entire track history